sensor_id;sensor_type;location;lat;lon;timestamp;P1;durP1;ratioP1;P2;durP2;ratioP2
16426;SDS011;8322;-33.900;151.170;2023-05-23T00:00:25;6.85;;;2.80;;
16426;SDS011;8322;-33.900;151.170;2023-05-23T00:02:55;6.97;;;2.72;;
16426;SDS011;8322;-33.900;151.170;2023-05-23T00:05:25;8.20;;;2.78;;
16426;SDS011;8322;-33.900;151.170;2023-05-23T00:07:55;6.13;;;2.60;;
16426;SDS011;8322;-33.900;151.170;2023-05-23T00:10:24;7.68;;;3.03;;
16426;SDS011;8322;-33.900;151.170;2023-05-23T00:12:54;8.00;;;2.88;;
16426;SDS011;8322;-33.900;151.170;2023-05-23T00:15:26;8.45;;;2.90;;
16426;SDS011;8322;-33.900;151.170;2023-05-23T00:17:55;8.88;;;2.85;;
16426;SDS011;8322;-33.900;151.170;2023-05-23T00:20:25;7.07;;;2.53;;
16426;SDS011;8322;-33.900;151.170;2023-05-23T00:22:55;7.78;;;2.42;;
16426;SDS011;8322;-33.900;151.170;2023-05-23T00:25:25;7.68;;;2.70;;
16426;SDS011;8322;-33.900;151.170;2023-05-23T00:27:59;7.93;;;2.90;;
16426;SDS011;8322;-33.900;151.170;2023-05-23T00:30:30;6.38;;;2.55;;
16426;SDS011;8322;-33.900;151.170;2023-05-23T00:33:00;7.82;;;2.70;;
16426;SDS011;8322;-33.900;151.170;2023-05-23T00:35:29;6.10;;;2.30;;
16426;SDS011;8322;-33.900;151.170;2023-05-23T00:37:59;7.75;;;2.63;;
16426;SDS011;8322;-33.900;151.170;2023-05-23T00:40:29;6.45;;;2.60;;
16426;SDS011;8322;-33.900;151.170;2023-05-23T00:42:58;8.32;;;2.63;;
16426;SDS011;8322;-33.900;151.170;2023-05-23T00:45:28;7.53;;;3.30;;
16426;SDS011;8322;-33.900;151.170;2023-05-23T00:47:59;7.75;;;2.67;;
16426;SDS011;8322;-33.900;151.170;2023-05-23T00:50:29;9.45;;;3.25;;
16426;SDS011;8322;-33.900;151.170;2023-05-23T00:52:59;5.03;;;1.90;;
16426;SDS011;8322;-33.900;151.170;2023-05-23T00:55:29;6.15;;;2.05;;
16426;SDS011;8322;-33.900;151.170;2023-05-23T00:57:59;6.70;;;2.35;;
16426;SDS011;8322;-33.900;151.170;2023-05-23T01:00:28;6.57;;;2.33;;
16426;SDS011;8322;-33.900;151.170;2023-05-23T01:03:00;6.75;;;2.67;;
16426;SDS011;8322;-33.900;151.170;2023-05-23T01:05:30;6.63;;;2.28;;
16426;SDS011;8322;-33.900;151.170;2023-05-23T01:07:59;9.38;;;2.60;;
16426;SDS011;8322;-33.900;151.170;2023-05-23T01:10:29;6.25;;;2.17;;
16426;SDS011;8322;-33.900;151.170;2023-05-23T01:13:02;7.10;;;2.22;;
16426;SDS011;8322;-33.900;151.170;2023-05-23T01:15:35;6.57;;;2.35;;
16426;SDS011;8322;-33.900;151.170;2023-05-23T01:18:09;6.15;;;2.08;;
16426;SDS011;8322;-33.900;151.170;2023-05-23T01:20:40;5.60;;;2.35;;
16426;SDS011;8322;-33.900;151.170;2023-05-23T01:26:17;6.45;;;2.20;;
16426;SDS011;8322;-33.900;151.170;2023-05-23T01:28:53;6.28;;;2.60;;
16426;SDS011;8322;-33.900;151.170;2023-05-23T01:31:23;6.28;;;2.58;;
16426;SDS011;8322;-33.900;151.170;2023-05-23T01:33:54;6.20;;;2.28;;
16426;SDS011;8322;-33.900;151.170;2023-05-23T01:36:24;6.45;;;2.00;;
16426;SDS011;8322;-33.900;151.170;2023-05-23T01:38:54;7.10;;;2.88;;
16426;SDS011;8322;-33.900;151.170;2023-05-23T01:41:23;8.68;;;2.15;;
16426;SDS011;8322;-33.900;151.170;2023-05-23T01:43:55;10.70;;;2.58;;
16426;SDS011;8322;-33.900;151.170;2023-05-23T01:46:24;8.30;;;2.08;;
16426;SDS011;8322;-33.900;151.170;2023-05-23T01:48:55;4.18;;;1.80;;
16426;SDS011;8322;-33.900;151.170;2023-05-23T01:51:25;7.40;;;2.05;;
16426;SDS011;8322;-33.900;151.170;2023-05-23T01:53:55;9.95;;;4.78;;
16426;SDS011;8322;-33.900;151.170;2023-05-23T01:56:25;7.32;;;3.50;;
16426;SDS011;8322;-33.900;151.170;2023-05-23T01:58:57;6.15;;;2.25;;
16426;SDS011;8322;-33.900;151.170;2023-05-23T02:01:26;6.90;;;3.20;;
16426;SDS011;8322;-33.900;151.170;2023-05-23T02:03:56;6.13;;;2.20;;
16426;SDS011;8322;-33.900;151.170;2023-05-23T02:06:25;7.35;;;2.10;;
16426;SDS011;8322;-33.900;151.170;2023-05-23T02:08:55;8.30;;;2.08;;
16426;SDS011;8322;-33.900;151.170;2023-05-23T02:11:24;4.72;;;1.55;;
16426;SDS011;8322;-33.900;151.170;2023-05-23T02:13:54;5.22;;;1.70;;
16426;SDS011;8322;-33.900;151.170;2023-05-23T02:16:25;5.13;;;1.48;;
16426;SDS011;8322;-33.900;151.170;2023-05-23T02:18:54;4.43;;;1.83;;
16426;SDS011;8322;-33.900;151.170;2023-05-23T02:21:24;4.45;;;1.92;;
16426;SDS011;8322;-33.900;151.170;2023-05-23T02:23:53;6.07;;;1.85;;
16426;SDS011;8322;-33.900;151.170;2023-05-23T02:26:23;4.07;;;1.70;;
16426;SDS011;8322;-33.900;151.170;2023-05-23T02:31:34;5.88;;;1.92;;
16426;SDS011;8322;-33.900;151.170;2023-05-23T02:34:04;6.53;;;1.85;;
16426;SDS011;8322;-33.900;151.170;2023-05-23T02:36:34;6.75;;;2.55;;
16426;SDS011;8322;-33.900;151.170;2023-05-23T02:39:04;4.93;;;2.17;;
16426;SDS011;8322;-33.900;151.170;2023-05-23T02:41:33;6.93;;;1.95;;
16426;SDS011;8322;-33.900;151.170;2023-05-23T02:44:03;4.75;;;1.80;;
16426;SDS011;8322;-33.900;151.170;2023-05-23T02:46:34;6.85;;;2.10;;
16426;SDS011;8322;-33.900;151.170;2023-05-23T02:49:04;5.75;;;1.83;;
16426;SDS011;8322;-33.900;151.170;2023-05-23T02:51:33;7.35;;;2.50;;
16426;SDS011;8322;-33.900;151.170;2023-05-23T02:54:03;6.72;;;2.38;;
16426;SDS011;8322;-33.900;151.170;2023-05-23T02:56:32;6.45;;;1.73;;
16426;SDS011;8322;-33.900;151.170;2023-05-23T02:59:01;8.45;;;2.38;;
16426;SDS011;8322;-33.900;151.170;2023-05-23T03:01:31;6.25;;;1.98;;
16426;SDS011;8322;-33.900;151.170;2023-05-23T03:04:02;5.93;;;2.10;;
16426;SDS011;8322;-33.900;151.170;2023-05-23T03:06:32;5.85;;;2.03;;
16426;SDS011;8322;-33.900;151.170;2023-05-23T03:09:01;5.50;;;1.58;;
16426;SDS011;8322;-33.900;151.170;2023-05-23T03:11:31;8.25;;;1.75;;
16426;SDS011;8322;-33.900;151.170;2023-05-23T03:14:00;7.53;;;1.98;;
16426;SDS011;8322;-33.900;151.170;2023-05-23T03:16:30;4.95;;;2.00;;
16426;SDS011;8322;-33.900;151.170;2023-05-23T03:18:59;4.70;;;1.95;;
16426;SDS011;8322;-33.900;151.170;2023-05-23T03:21:31;6.25;;;1.83;;
16426;SDS011;8322;-33.900;151.170;2023-05-23T03:24:01;6.25;;;1.98;;
16426;SDS011;8322;-33.900;151.170;2023-05-23T03:26:30;7.03;;;1.90;;
16426;SDS011;8322;-33.900;151.170;2023-05-23T03:29:00;9.13;;;2.15;;
16426;SDS011;8322;-33.900;151.170;2023-05-23T03:31:29;6.72;;;1.90;;
16426;SDS011;8322;-33.900;151.170;2023-05-23T03:33:59;6.43;;;1.85;;
16426;SDS011;8322;-33.900;151.170;2023-05-23T03:36:32;5.63;;;2.08;;
16426;SDS011;8322;-33.900;151.170;2023-05-23T03:39:04;6.85;;;1.70;;
16426;SDS011;8322;-33.900;151.170;2023-05-23T03:41:33;7.75;;;2.40;;
16426;SDS011;8322;-33.900;151.170;2023-05-23T03:44:03;5.30;;;1.63;;
16426;SDS011;8322;-33.900;151.170;2023-05-23T03:46:32;4.00;;;1.60;;
16426;SDS011;8322;-33.900;151.170;2023-05-23T03:49:02;7.45;;;1.70;;
16426;SDS011;8322;-33.900;151.170;2023-05-23T03:51:33;6.45;;;1.92;;
16426;SDS011;8322;-33.900;151.170;2023-05-23T03:54:03;4.97;;;1.80;;
16426;SDS011;8322;-33.900;151.170;2023-05-23T03:56:32;6.25;;;1.90;;
16426;SDS011;8322;-33.900;151.170;2023-05-23T03:59:01;6.50;;;1.80;;
16426;SDS011;8322;-33.900;151.170;2023-05-23T04:01:31;5.70;;;1.85;;
16426;SDS011;8322;-33.900;151.170;2023-05-23T04:04:00;5.47;;;1.95;;
16426;SDS011;8322;-33.900;151.170;2023-05-23T04:06:30;6.05;;;1.80;;
16426;SDS011;8322;-33.900;151.170;2023-05-23T04:09:01;5.07;;;1.90;;
16426;SDS011;8322;-33.900;151.170;2023-05-23T04:11:31;4.70;;;1.38;;
16426;SDS011;8322;-33.900;151.170;2023-05-23T04:14:00;7.43;;;1.80;;
16426;SDS011;8322;-33.900;151.170;2023-05-23T04:16:30;5.47;;;1.85;;
16426;SDS011;8322;-33.900;151.170;2023-05-23T04:19:01;6.15;;;1.90;;
16426;SDS011;8322;-33.900;151.170;2023-05-23T04:21:31;7.32;;;1.65;;
16426;SDS011;8322;-33.900;151.170;2023-05-23T04:24:02;6.40;;;1.60;;
16426;SDS011;8322;-33.900;151.170;2023-05-23T04:26:31;9.13;;;2.20;;
16426;SDS011;8322;-33.900;151.170;2023-05-23T04:29:02;8.32;;;2.22;;
16426;SDS011;8322;-33.900;151.170;2023-05-23T04:31:32;8.75;;;2.38;;
16426;SDS011;8322;-33.900;151.170;2023-05-23T04:34:02;6.85;;;2.15;;
16426;SDS011;8322;-33.900;151.170;2023-05-23T04:36:34;7.90;;;1.77;;
16426;SDS011;8322;-33.900;151.170;2023-05-23T04:39:05;7.00;;;2.20;;
16426;SDS011;8322;-33.900;151.170;2023-05-23T04:41:35;10.52;;;2.60;;
16426;SDS011;8322;-33.900;151.170;2023-05-23T04:44:04;9.13;;;2.40;;
16426;SDS011;8322;-33.900;151.170;2023-05-23T04:46:35;5.63;;;1.90;;
16426;SDS011;8322;-33.900;151.170;2023-05-23T04:49:06;6.85;;;2.05;;
16426;SDS011;8322;-33.900;151.170;2023-05-23T04:51:36;8.77;;;2.10;;
16426;SDS011;8322;-33.900;151.170;2023-05-23T04:54:07;7.05;;;2.17;;
16426;SDS011;8322;-33.900;151.170;2023-05-23T04:56:37;3.80;;;1.83;;
16426;SDS011;8322;-33.900;151.170;2023-05-23T04:59:06;7.07;;;2.20;;
16426;SDS011;8322;-33.900;151.170;2023-05-23T05:01:36;8.20;;;2.00;;
16426;SDS011;8322;-33.900;151.170;2023-05-23T05:04:05;6.35;;;1.83;;
16426;SDS011;8322;-33.900;151.170;2023-05-23T05:06:35;4.68;;;1.95;;
16426;SDS011;8322;-33.900;151.170;2023-05-23T05:09:05;6.95;;;1.90;;
16426;SDS011;8322;-33.900;151.170;2023-05-23T05:11:36;5.28;;;1.70;;
16426;SDS011;8322;-33.900;151.170;2023-05-23T05:14:06;6.63;;;1.75;;
16426;SDS011;8322;-33.900;151.170;2023-05-23T05:16:35;7.80;;;2.13;;
16426;SDS011;8322;-33.900;151.170;2023-05-23T05:19:05;6.80;;;2.00;;
16426;SDS011;8322;-33.900;151.170;2023-05-23T05:21:34;7.25;;;1.85;;
16426;SDS011;8322;-33.900;151.170;2023-05-23T05:24:04;7.03;;;1.90;;
16426;SDS011;8322;-33.900;151.170;2023-05-23T05:26:36;6.72;;;1.80;;
16426;SDS011;8322;-33.900;151.170;2023-05-23T05:29:05;6.65;;;1.60;;
16426;SDS011;8322;-33.900;151.170;2023-05-23T05:31:35;5.57;;;1.60;;
16426;SDS011;8322;-33.900;151.170;2023-05-23T05:34:05;10.88;;;2.00;;
16426;SDS011;8322;-33.900;151.170;2023-05-23T05:36:35;5.38;;;1.80;;
16426;SDS011;8322;-33.900;151.170;2023-05-23T05:39:10;5.72;;;1.70;;
16426;SDS011;8322;-33.900;151.170;2023-05-23T05:41:42;6.97;;;2.00;;
16426;SDS011;8322;-33.900;151.170;2023-05-23T05:44:11;7.30;;;2.05;;
16426;SDS011;8322;-33.900;151.170;2023-05-23T05:46:41;8.18;;;2.33;;
16426;SDS011;8322;-33.900;151.170;2023-05-23T05:49:10;6.35;;;1.58;;
16426;SDS011;8322;-33.900;151.170;2023-05-23T05:51:40;7.72;;;2.10;;
16426;SDS011;8322;-33.900;151.170;2023-05-23T05:54:09;10.73;;;1.90;;
16426;SDS011;8322;-33.900;151.170;2023-05-23T05:56:38;8.15;;;2.22;;
16426;SDS011;8322;-33.900;151.170;2023-05-23T05:59:10;8.70;;;2.72;;
16426;SDS011;8322;-33.900;151.170;2023-05-23T06:01:40;7.20;;;2.35;;
16426;SDS011;8322;-33.900;151.170;2023-05-23T06:04:09;13.63;;;2.47;;
16426;SDS011;8322;-33.900;151.170;2023-05-23T06:06:39;6.82;;;2.17;;
16426;SDS011;8322;-33.900;151.170;2023-05-23T06:09:08;11.05;;;2.33;;
16426;SDS011;8322;-33.900;151.170;2023-05-23T06:11:38;6.28;;;2.35;;
16426;SDS011;8322;-33.900;151.170;2023-05-23T06:14:08;10.00;;;2.38;;
16426;SDS011;8322;-33.900;151.170;2023-05-23T06:16:39;10.13;;;2.40;;
16426;SDS011;8322;-33.900;151.170;2023-05-23T06:19:09;9.07;;;2.78;;
16426;SDS011;8322;-33.900;151.170;2023-05-23T06:21:38;6.63;;;2.20;;
16426;SDS011;8322;-33.900;151.170;2023-05-23T06:24:07;6.38;;;2.05;;
16426;SDS011;8322;-33.900;151.170;2023-05-23T06:26:37;8.45;;;1.95;;
16426;SDS011;8322;-33.900;151.170;2023-05-23T06:29:06;7.22;;;2.10;;
16426;SDS011;8322;-33.900;151.170;2023-05-23T06:31:36;7.95;;;2.50;;
16426;SDS011;8322;-33.900;151.170;2023-05-23T06:34:07;9.88;;;2.20;;
16426;SDS011;8322;-33.900;151.170;2023-05-23T06:36:37;7.43;;;2.50;;
16426;SDS011;8322;-33.900;151.170;2023-05-23T06:39:07;9.25;;;2.75;;
16426;SDS011;8322;-33.900;151.170;2023-05-23T06:41:37;7.80;;;2.05;;
16426;SDS011;8322;-33.900;151.170;2023-05-23T06:44:07;8.88;;;2.40;;
16426;SDS011;8322;-33.900;151.170;2023-05-23T06:46:36;7.20;;;2.20;;
16426;SDS011;8322;-33.900;151.170;2023-05-23T06:49:08;10.00;;;2.83;;
16426;SDS011;8322;-33.900;151.170;2023-05-23T06:51:37;9.82;;;2.47;;
16426;SDS011;8322;-33.900;151.170;2023-05-23T06:54:07;7.50;;;2.53;;
16426;SDS011;8322;-33.900;151.170;2023-05-23T06:56:36;13.30;;;3.22;;
16426;SDS011;8322;-33.900;151.170;2023-05-23T06:59:05;8.38;;;3.17;;
16426;SDS011;8322;-33.900;151.170;2023-05-23T07:01:35;6.75;;;2.47;;
16426;SDS011;8322;-33.900;151.170;2023-05-23T07:04:04;8.68;;;2.60;;
16426;SDS011;8322;-33.900;151.170;2023-05-23T07:06:36;10.18;;;2.63;;
16426;SDS011;8322;-33.900;151.170;2023-05-23T07:09:06;9.38;;;2.55;;
16426;SDS011;8322;-33.900;151.170;2023-05-23T07:11:36;7.22;;;3.20;;
16426;SDS011;8322;-33.900;151.170;2023-05-23T07:14:06;8.52;;;2.50;;
16426;SDS011;8322;-33.900;151.170;2023-05-23T07:16:35;8.27;;;2.70;;
16426;SDS011;8322;-33.900;151.170;2023-05-23T07:19:05;8.32;;;2.58;;
16426;SDS011;8322;-33.900;151.170;2023-05-23T07:21:36;7.10;;;2.63;;
16426;SDS011;8322;-33.900;151.170;2023-05-23T07:24:06;12.20;;;3.40;;
16426;SDS011;8322;-33.900;151.170;2023-05-23T07:26:35;10.63;;;3.00;;
16426;SDS011;8322;-33.900;151.170;2023-05-23T07:29:05;15.48;;;3.20;;
16426;SDS011;8322;-33.900;151.170;2023-05-23T07:31:34;9.38;;;2.95;;
16426;SDS011;8322;-33.900;151.170;2023-05-23T07:34:04;9.32;;;3.58;;
16426;SDS011;8322;-33.900;151.170;2023-05-23T07:36:33;10.27;;;3.33;;
16426;SDS011;8322;-33.900;151.170;2023-05-23T07:39:07;9.52;;;3.25;;
16426;SDS011;8322;-33.900;151.170;2023-05-23T07:41:37;12.90;;;3.25;;
16426;SDS011;8322;-33.900;151.170;2023-05-23T07:44:06;9.43;;;2.90;;
16426;SDS011;8322;-33.900;151.170;2023-05-23T07:46:35;11.55;;;3.17;;
16426;SDS011;8322;-33.900;151.170;2023-05-23T07:49:05;13.57;;;3.42;;
16426;SDS011;8322;-33.900;151.170;2023-05-23T07:51:34;10.57;;;3.42;;
16426;SDS011;8322;-33.900;151.170;2023-05-23T07:54:04;13.27;;;4.07;;
16426;SDS011;8322;-33.900;151.170;2023-05-23T07:56:35;11.35;;;3.50;;
16426;SDS011;8322;-33.900;151.170;2023-05-23T07:59:05;11.25;;;3.47;;
16426;SDS011;8322;-33.900;151.170;2023-05-23T08:01:35;11.23;;;3.70;;
16426;SDS011;8322;-33.900;151.170;2023-05-23T08:04:05;12.93;;;3.80;;
16426;SDS011;8322;-33.900;151.170;2023-05-23T08:06:34;18.52;;;5.32;;
16426;SDS011;8322;-33.900;151.170;2023-05-23T08:09:05;13.88;;;4.10;;
16426;SDS011;8322;-33.900;151.170;2023-05-23T08:11:37;12.60;;;3.40;;
16426;SDS011;8322;-33.900;151.170;2023-05-23T08:14:06;12.20;;;4.18;;
16426;SDS011;8322;-33.900;151.170;2023-05-23T08:16:36;9.77;;;3.67;;
16426;SDS011;8322;-33.900;151.170;2023-05-23T08:19:05;15.02;;;3.60;;
16426;SDS011;8322;-33.900;151.170;2023-05-23T08:21:35;12.80;;;3.50;;
16426;SDS011;8322;-33.900;151.170;2023-05-23T08:24:04;10.75;;;3.70;;
16426;SDS011;8322;-33.900;151.170;2023-05-23T08:26:34;7.10;;;2.80;;
16426;SDS011;8322;-33.900;151.170;2023-05-23T08:29:05;14.48;;;5.03;;
16426;SDS011;8322;-33.900;151.170;2023-05-23T08:31:35;14.35;;;5.75;;
16426;SDS011;8322;-33.900;151.170;2023-05-23T08:34:06;17.67;;;7.28;;
16426;SDS011;8322;-33.900;151.170;2023-05-23T08:36:36;19.35;;;8.13;;
16426;SDS011;8322;-33.900;151.170;2023-05-23T08:39:07;35.78;;;15.13;;
16426;SDS011;8322;-33.900;151.170;2023-05-23T08:41:36;36.53;;;15.82;;
16426;SDS011;8322;-33.900;151.170;2023-05-23T08:44:09;29.10;;;11.18;;
16426;SDS011;8322;-33.900;151.170;2023-05-23T08:46:39;19.05;;;7.85;;
16426;SDS011;8322;-33.900;151.170;2023-05-23T08:49:08;18.95;;;7.28;;
16426;SDS011;8322;-33.900;151.170;2023-05-23T08:51:39;17.65;;;6.65;;
16426;SDS011;8322;-33.900;151.170;2023-05-23T08:54:11;18.30;;;6.80;;
16426;SDS011;8322;-33.900;151.170;2023-05-23T08:56:40;16.50;;;7.00;;
16426;SDS011;8322;-33.900;151.170;2023-05-23T08:59:13;16.20;;;7.20;;
16426;SDS011;8322;-33.900;151.170;2023-05-23T09:01:43;15.80;;;7.43;;
16426;SDS011;8322;-33.900;151.170;2023-05-23T09:04:13;17.73;;;7.22;;
16426;SDS011;8322;-33.900;151.170;2023-05-23T09:06:42;14.50;;;6.88;;
16426;SDS011;8322;-33.900;151.170;2023-05-23T09:09:12;18.80;;;7.47;;
16426;SDS011;8322;-33.900;151.170;2023-05-23T09:11:41;18.08;;;7.72;;
16426;SDS011;8322;-33.900;151.170;2023-05-23T09:14:13;18.02;;;8.35;;
16426;SDS011;8322;-33.900;151.170;2023-05-23T09:16:45;20.13;;;9.75;;
16426;SDS011;8322;-33.900;151.170;2023-05-23T09:19:17;21.92;;;11.05;;
16426;SDS011;8322;-33.900;151.170;2023-05-23T09:21:47;18.10;;;8.05;;
16426;SDS011;8322;-33.900;151.170;2023-05-23T09:24:16;19.52;;;8.50;;
16426;SDS011;8322;-33.900;151.170;2023-05-23T09:26:47;20.17;;;8.23;;
16426;SDS011;8322;-33.900;151.170;2023-05-23T09:29:20;14.57;;;7.13;;
16426;SDS011;8322;-33.900;151.170;2023-05-23T09:31:50;17.65;;;6.85;;
16426;SDS011;8322;-33.900;151.170;2023-05-23T09:34:19;15.48;;;6.28;;
16426;SDS011;8322;-33.900;151.170;2023-05-23T09:36:49;18.65;;;6.40;;
16426;SDS011;8322;-33.900;151.170;2023-05-23T09:39:18;17.10;;;5.95;;
16426;SDS011;8322;-33.900;151.170;2023-05-23T09:41:48;14.40;;;5.90;;
16426;SDS011;8322;-33.900;151.170;2023-05-23T09:44:22;13.98;;;5.95;;
16426;SDS011;8322;-33.900;151.170;2023-05-23T09:46:51;13.25;;;5.70;;
16426;SDS011;8322;-33.900;151.170;2023-05-23T09:49:21;15.82;;;6.68;;
16426;SDS011;8322;-33.900;151.170;2023-05-23T09:51:57;25.73;;;9.30;;
16426;SDS011;8322;-33.900;151.170;2023-05-23T09:54:27;15.63;;;6.88;;
16426;SDS011;8322;-33.900;151.170;2023-05-23T09:56:56;16.40;;;8.10;;
16426;SDS011;8322;-33.900;151.170;2023-05-23T09:59:29;20.65;;;7.57;;
16426;SDS011;8322;-33.900;151.170;2023-05-23T10:02:00;19.13;;;6.82;;
16426;SDS011;8322;-33.900;151.170;2023-05-23T10:04:30;18.73;;;7.22;;
16426;SDS011;8322;-33.900;151.170;2023-05-23T10:07:03;21.50;;;9.15;;
16426;SDS011;8322;-33.900;151.170;2023-05-23T10:09:35;17.63;;;8.35;;
16426;SDS011;8322;-33.900;151.170;2023-05-23T10:14:54;27.05;;;10.40;;
16426;SDS011;8322;-33.900;151.170;2023-05-23T10:17:26;20.10;;;9.50;;
16426;SDS011;8322;-33.900;151.170;2023-05-23T10:20:00;20.65;;;9.10;;
16426;SDS011;8322;-33.900;151.170;2023-05-23T10:22:33;22.83;;;9.70;;
16426;SDS011;8322;-33.900;151.170;2023-05-23T10:25:03;21.70;;;10.05;;
16426;SDS011;8322;-33.900;151.170;2023-05-23T10:27:33;19.92;;;9.55;;
16426;SDS011;8322;-33.900;151.170;2023-05-23T10:30:06;22.73;;;9.50;;
16426;SDS011;8322;-33.900;151.170;2023-05-23T10:32:37;22.42;;;9.48;;
16426;SDS011;8322;-33.900;151.170;2023-05-23T10:35:09;21.55;;;8.98;;
16426;SDS011;8322;-33.900;151.170;2023-05-23T10:37:44;14.75;;;7.60;;
16426;SDS011;8322;-33.900;151.170;2023-05-23T10:40:18;17.13;;;7.88;;
16426;SDS011;8322;-33.900;151.170;2023-05-23T10:42:51;18.23;;;8.07;;
16426;SDS011;8322;-33.900;151.170;2023-05-23T10:45:24;22.30;;;8.77;;
16426;SDS011;8322;-33.900;151.170;2023-05-23T10:47:54;18.88;;;9.07;;
16426;SDS011;8322;-33.900;151.170;2023-05-23T10:50:30;22.05;;;9.82;;
16426;SDS011;8322;-33.900;151.170;2023-05-23T10:53:00;20.55;;;9.23;;
16426;SDS011;8322;-33.900;151.170;2023-05-23T10:55:33;20.20;;;10.30;;
16426;SDS011;8322;-33.900;151.170;2023-05-23T10:58:09;26.20;;;12.15;;
16426;SDS011;8322;-33.900;151.170;2023-05-23T11:00:41;22.33;;;11.15;;
16426;SDS011;8322;-33.900;151.170;2023-05-23T11:03:15;23.55;;;10.35;;
16426;SDS011;8322;-33.900;151.170;2023-05-23T11:05:47;22.77;;;9.70;;
16426;SDS011;8322;-33.900;151.170;2023-05-23T11:08:22;23.10;;;9.50;;
16426;SDS011;8322;-33.900;151.170;2023-05-23T11:10:53;23.25;;;9.70;;
16426;SDS011;8322;-33.900;151.170;2023-05-23T11:13:22;18.98;;;9.63;;
16426;SDS011;8322;-33.900;151.170;2023-05-23T11:15:54;22.30;;;8.57;;
16426;SDS011;8322;-33.900;151.170;2023-05-23T11:18:25;19.38;;;7.43;;
16426;SDS011;8322;-33.900;151.170;2023-05-23T11:20:56;16.15;;;7.38;;
16426;SDS011;8322;-33.900;151.170;2023-05-23T11:23:38;18.70;;;7.65;;
16426;SDS011;8322;-33.900;151.170;2023-05-23T11:28:55;17.92;;;7.07;;
16426;SDS011;8322;-33.900;151.170;2023-05-23T11:31:26;19.75;;;8.20;;
16426;SDS011;8322;-33.900;151.170;2023-05-23T11:33:56;18.13;;;7.88;;
16426;SDS011;8322;-33.900;151.170;2023-05-23T11:36:25;16.70;;;7.07;;
16426;SDS011;8322;-33.900;151.170;2023-05-23T11:38:59;17.05;;;7.00;;
16426;SDS011;8322;-33.900;151.170;2023-05-23T11:41:30;14.75;;;7.38;;
16426;SDS011;8322;-33.900;151.170;2023-05-23T11:43:59;14.75;;;6.63;;
16426;SDS011;8322;-33.900;151.170;2023-05-23T11:46:31;14.30;;;6.40;;
16426;SDS011;8322;-33.900;151.170;2023-05-23T11:49:00;17.23;;;6.65;;
16426;SDS011;8322;-33.900;151.170;2023-05-23T11:51:30;18.50;;;6.97;;
16426;SDS011;8322;-33.900;151.170;2023-05-23T11:54:00;15.52;;;7.00;;
16426;SDS011;8322;-33.900;151.170;2023-05-23T11:56:29;18.30;;;8.23;;
16426;SDS011;8322;-33.900;151.170;2023-05-23T11:58:59;16.67;;;8.13;;
16426;SDS011;8322;-33.900;151.170;2023-05-23T12:01:30;18.20;;;8.38;;
16426;SDS011;8322;-33.900;151.170;2023-05-23T12:04:00;17.40;;;8.65;;
16426;SDS011;8322;-33.900;151.170;2023-05-23T12:06:38;20.05;;;8.25;;
16426;SDS011;8322;-33.900;151.170;2023-05-23T12:09:09;17.92;;;7.82;;
16426;SDS011;8322;-33.900;151.170;2023-05-23T12:11:40;24.15;;;9.68;;
16426;SDS011;8322;-33.900;151.170;2023-05-23T12:14:13;20.70;;;9.27;;
16426;SDS011;8322;-33.900;151.170;2023-05-23T12:16:44;21.30;;;8.45;;
16426;SDS011;8322;-33.900;151.170;2023-05-23T12:19:15;19.75;;;8.35;;
16426;SDS011;8322;-33.900;151.170;2023-05-23T12:21:45;17.90;;;8.02;;
16426;SDS011;8322;-33.900;151.170;2023-05-23T12:24:15;17.27;;;7.82;;
16426;SDS011;8322;-33.900;151.170;2023-05-23T12:26:46;14.77;;;7.78;;
16426;SDS011;8322;-33.900;151.170;2023-05-23T12:29:16;19.27;;;8.25;;
16426;SDS011;8322;-33.900;151.170;2023-05-23T12:31:52;20.05;;;8.70;;
16426;SDS011;8322;-33.900;151.170;2023-05-23T12:34:21;21.48;;;8.82;;
16426;SDS011;8322;-33.900;151.170;2023-05-23T12:36:53;16.73;;;8.25;;
16426;SDS011;8322;-33.900;151.170;2023-05-23T12:39:26;21.67;;;8.73;;
16426;SDS011;8322;-33.900;151.170;2023-05-23T12:42:06;18.02;;;8.55;;
16426;SDS011;8322;-33.900;151.170;2023-05-23T12:44:36;20.23;;;8.60;;
16426;SDS011;8322;-33.900;151.170;2023-05-23T12:47:07;18.20;;;7.90;;
16426;SDS011;8322;-33.900;151.170;2023-05-23T12:49:37;17.55;;;7.50;;
16426;SDS011;8322;-33.900;151.170;2023-05-23T12:52:06;18.27;;;8.32;;
16426;SDS011;8322;-33.900;151.170;2023-05-23T12:54:36;16.42;;;7.93;;
16426;SDS011;8322;-33.900;151.170;2023-05-23T12:57:05;15.98;;;8.00;;
16426;SDS011;8322;-33.900;151.170;2023-05-23T12:59:35;18.88;;;8.50;;
16426;SDS011;8322;-33.900;151.170;2023-05-23T13:02:05;18.60;;;8.98;;
16426;SDS011;8322;-33.900;151.170;2023-05-23T13:04:36;18.80;;;8.55;;
16426;SDS011;8322;-33.900;151.170;2023-05-23T13:07:05;15.80;;;8.02;;
16426;SDS011;8322;-33.900;151.170;2023-05-23T13:09:35;13.32;;;7.40;;
16426;SDS011;8322;-33.900;151.170;2023-05-23T13:12:05;18.98;;;7.88;;
16426;SDS011;8322;-33.900;151.170;2023-05-23T13:14:35;18.67;;;8.35;;
16426;SDS011;8322;-33.900;151.170;2023-05-23T13:17:04;18.52;;;8.70;;
16426;SDS011;8322;-33.900;151.170;2023-05-23T13:19:34;17.08;;;8.13;;
16426;SDS011;8322;-33.900;151.170;2023-05-23T13:22:05;18.90;;;8.00;;
16426;SDS011;8322;-33.900;151.170;2023-05-23T13:24:36;18.75;;;8.40;;
16426;SDS011;8322;-33.900;151.170;2023-05-23T13:27:05;23.90;;;9.00;;
16426;SDS011;8322;-33.900;151.170;2023-05-23T13:29:35;20.20;;;8.27;;
16426;SDS011;8322;-33.900;151.170;2023-05-23T13:32:04;17.88;;;8.13;;
16426;SDS011;8322;-33.900;151.170;2023-05-23T13:34:34;20.23;;;8.55;;
16426;SDS011;8322;-33.900;151.170;2023-05-23T13:37:06;21.17;;;9.23;;
16426;SDS011;8322;-33.900;151.170;2023-05-23T13:39:35;16.90;;;7.80;;
16426;SDS011;8322;-33.900;151.170;2023-05-23T13:42:05;15.05;;;8.02;;
16426;SDS011;8322;-33.900;151.170;2023-05-23T13:44:34;18.35;;;8.27;;
16426;SDS011;8322;-33.900;151.170;2023-05-23T13:47:10;17.00;;;8.10;;
16426;SDS011;8322;-33.900;151.170;2023-05-23T13:49:40;17.83;;;8.85;;
16426;SDS011;8322;-33.900;151.170;2023-05-23T13:52:11;18.58;;;8.95;;
16426;SDS011;8322;-33.900;151.170;2023-05-23T13:54:41;18.08;;;8.88;;
16426;SDS011;8322;-33.900;151.170;2023-05-23T13:57:11;19.30;;;9.95;;
16426;SDS011;8322;-33.900;151.170;2023-05-23T13:59:40;18.85;;;9.70;;
16426;SDS011;8322;-33.900;151.170;2023-05-23T14:02:10;23.38;;;10.77;;
16426;SDS011;8322;-33.900;151.170;2023-05-23T14:04:39;20.33;;;10.55;;
16426;SDS011;8322;-33.900;151.170;2023-05-23T14:07:09;22.25;;;10.75;;
16426;SDS011;8322;-33.900;151.170;2023-05-23T14:09:40;29.60;;;12.15;;
16426;SDS011;8322;-33.900;151.170;2023-05-23T14:12:09;24.65;;;12.45;;
16426;SDS011;8322;-33.900;151.170;2023-05-23T14:14:39;23.75;;;10.68;;
16426;SDS011;8322;-33.900;151.170;2023-05-23T14:17:13;19.45;;;10.80;;
16426;SDS011;8322;-33.900;151.170;2023-05-23T14:19:43;24.73;;;10.27;;
16426;SDS011;8322;-33.900;151.170;2023-05-23T14:22:12;22.88;;;11.20;;
16426;SDS011;8322;-33.900;151.170;2023-05-23T14:24:43;25.23;;;11.30;;
16426;SDS011;8322;-33.900;151.170;2023-05-23T14:27:13;23.50;;;10.48;;
16426;SDS011;8322;-33.900;151.170;2023-05-23T14:29:43;20.08;;;10.25;;
16426;SDS011;8322;-33.900;151.170;2023-05-23T14:32:13;21.55;;;10.45;;
16426;SDS011;8322;-33.900;151.170;2023-05-23T14:34:43;21.45;;;9.85;;
16426;SDS011;8322;-33.900;151.170;2023-05-23T14:37:13;19.73;;;9.77;;
16426;SDS011;8322;-33.900;151.170;2023-05-23T14:39:44;21.35;;;9.55;;
16426;SDS011;8322;-33.900;151.170;2023-05-23T14:42:14;19.55;;;9.23;;